sensor_id;sensor_type;location;lat;lon;timestamp;temperature;humidity
19110;DHT22;9687;50.836;12.060;2023-08-30T00:01:42;18.00;92.90
19110;DHT22;9687;50.836;12.060;2023-08-30T00:04:13;18.00;92.90
19110;DHT22;9687;50.836;12.060;2023-08-30T00:06:42;18.00;92.90
19110;DHT22;9687;50.836;12.060;2023-08-30T00:09:09;18.00;92.90
19110;DHT22;9687;50.836;12.060;2023-08-30T00:11:40;18.00;93.20
19110;DHT22;9687;50.836;12.060;2023-08-30T00:14:08;18.00;93.00
19110;DHT22;9687;50.836;12.060;2023-08-30T00:16:35;18.00;93.00
19110;DHT22;9687;50.836;12.060;2023-08-30T00:19:04;18.00;93.00
19110;DHT22;9687;50.836;12.060;2023-08-30T00:21:31;18.00;92.90
19110;DHT22;9687;50.836;12.060;2023-08-30T00:23:59;18.00;92.90
19110;DHT22;9687;50.836;12.060;2023-08-30T00:26:27;18.00;92.90
19110;DHT22;9687;50.836;12.060;2023-08-30T00:28:57;18.00;92.90
19110;DHT22;9687;50.836;12.060;2023-08-30T00:31:24;18.00;92.90
19110;DHT22;9687;50.836;12.060;2023-08-30T00:33:52;18.00;92.90
19110;DHT22;9687;50.836;12.060;2023-08-30T00:36:20;18.00;92.90
19110;DHT22;9687;50.836;12.060;2023-08-30T00:38:48;17.90;92.80
19110;DHT22;9687;50.836;12.060;2023-08-30T00:41:15;17.90;92.90
19110;DHT22;9687;50.836;12.060;2023-08-30T00:43:43;17.90;93.00
19110;DHT22;9687;50.836;12.060;2023-08-30T00:46:12;17.90;93.00
19110;DHT22;9687;50.836;12.060;2023-08-30T00:48:40;17.80;93.10
19110;DHT22;9687;50.836;12.060;2023-08-30T00:51:07;17.80;93.10
19110;DHT22;9687;50.836;12.060;2023-08-30T00:53:35;17.70;93.20
19110;DHT22;9687;50.836;12.060;2023-08-30T00:56:04;17.70;93.20
19110;DHT22;9687;50.836;12.060;2023-08-30T00:58:31;17.70;93.30
19110;DHT22;9687;50.836;12.060;2023-08-30T01:00:59;17.70;93.30
19110;DHT22;9687;50.836;12.060;2023-08-30T01:03:28;17.60;93.30
19110;DHT22;9687;50.836;12.060;2023-08-30T01:05:56;17.60;93.40
19110;DHT22;9687;50.836;12.060;2023-08-30T01:08:24;17.60;93.40
19110;DHT22;9687;50.836;12.060;2023-08-30T01:10:53;17.60;93.50
19110;DHT22;9687;50.836;12.060;2023-08-30T01:13:25;17.60;93.50
19110;DHT22;9687;50.836;12.060;2023-08-30T01:15:56;17.60;93.60
19110;DHT22;9687;50.836;12.060;2023-08-30T01:18:25;17.60;93.60
19110;DHT22;9687;50.836;12.060;2023-08-30T01:20:55;17.60;93.60
19110;DHT22;9687;50.836;12.060;2023-08-30T01:23:26;17.50;93.50
19110;DHT22;9687;50.836;12.060;2023-08-30T01:26:00;17.50;93.60
19110;DHT22;9687;50.836;12.060;2023-08-30T01:28:32;17.50;93.60
19110;DHT22;9687;50.836;12.060;2023-08-30T01:31:00;17.50;93.70
19110;DHT22;9687;50.836;12.060;2023-08-30T01:33:29;17.50;93.70
19110;DHT22;9687;50.836;12.060;2023-08-30T01:35:57;17.50;93.80
19110;DHT22;9687;50.836;12.060;2023-08-30T01:38:25;17.50;93.80
19110;DHT22;9687;50.836;12.060;2023-08-30T01:40:53;17.50;93.80
19110;DHT22;9687;50.836;12.060;2023-08-30T01:43:22;17.60;93.80
19110;DHT22;9687;50.836;12.060;2023-08-30T01:45:51;17.60;93.80
19110;DHT22;9687;50.836;12.060;2023-08-30T01:48:19;17.60;93.80
19110;DHT22;9687;50.836;12.060;2023-08-30T01:50:48;17.60;93.70
19110;DHT22;9687;50.836;12.060;2023-08-30T01:53:15;17.60;93.70
19110;DHT22;9687;50.836;12.060;2023-08-30T01:55:43;17.60;93.70
19110;DHT22;9687;50.836;12.060;2023-08-30T01:58:11;17.60;93.60
19110;DHT22;9687;50.836;12.060;2023-08-30T02:00:38;17.60;93.50
19110;DHT22;9687;50.836;12.060;2023-08-30T02:03:11;17.50;93.40
19110;DHT22;9687;50.836;12.060;2023-08-30T02:05:40;17.50;93.30
19110;DHT22;9687;50.836;12.060;2023-08-30T02:08:09;17.40;93.30
19110;DHT22;9687;50.836;12.060;2023-08-30T02:10:40;17.30;93.30
19110;DHT22;9687;50.836;12.060;2023-08-30T02:13:08;17.30;93.50
19110;DHT22;9687;50.836;12.060;2023-08-30T02:15:38;17.30;93.50
19110;DHT22;9687;50.836;12.060;2023-08-30T02:18:08;17.30;93.60
19110;DHT22;9687;50.836;12.060;2023-08-30T02:20:37;17.30;93.60
19110;DHT22;9687;50.836;12.060;2023-08-30T02:23:05;17.30;93.60
19110;DHT22;9687;50.836;12.060;2023-08-30T02:25:32;17.30;93.60
19110;DHT22;9687;50.836;12.060;2023-08-30T02:28:00;17.30;93.60
19110;DHT22;9687;50.836;12.060;2023-08-30T02:30:27;17.30;93.60
19110;DHT22;9687;50.836;12.060;2023-08-30T02:32:55;17.30;93.60
19110;DHT22;9687;50.836;12.060;2023-08-30T02:35:23;17.30;93.60
19110;DHT22;9687;50.836;12.060;2023-08-30T02:37:52;17.30;93.60
19110;DHT22;9687;50.836;12.060;2023-08-30T02:40:19;17.30;93.60
19110;DHT22;9687;50.836;12.060;2023-08-30T02:42:46;17.30;93.60
19110;DHT22;9687;50.836;12.060;2023-08-30T02:45:14;17.30;93.50
19110;DHT22;9687;50.836;12.060;2023-08-30T02:47:41;17.30;93.50
19110;DHT22;9687;50.836;12.060;2023-08-30T02:50:09;17.30;93.50
19110;DHT22;9687;50.836;12.060;2023-08-30T02:52:37;17.20;93.40
19110;DHT22;9687;50.836;12.060;2023-08-30T02:55:06;17.20;93.40
19110;DHT22;9687;50.836;12.060;2023-08-30T02:57:34;17.20;93.40
19110;DHT22;9687;50.836;12.060;2023-08-30T03:00:01;17.20;93.40
19110;DHT22;9687;50.836;12.060;2023-08-30T03:02:31;17.20;93.40
19110;DHT22;9687;50.836;12.060;2023-08-30T03:04:59;17.20;93.40
19110;DHT22;9687;50.836;12.060;2023-08-30T03:07:28;17.20;93.40
19110;DHT22;9687;50.836;12.060;2023-08-30T03:09:55;17.10;93.30
19110;DHT22;9687;50.836;12.060;2023-08-30T03:12:25;17.10;93.30
19110;DHT22;9687;50.836;12.060;2023-08-30T03:14:54;17.00;93.20
19110;DHT22;9687;50.836;12.060;2023-08-30T03:17:22;17.10;93.20
19110;DHT22;9687;50.836;12.060;2023-08-30T03:19:51;17.00;93.30
19110;DHT22;9687;50.836;12.060;2023-08-30T03:22:19;17.00;93.40
19110;DHT22;9687;50.836;12.060;2023-08-30T03:24:46;16.90;93.40
19110;DHT22;9687;50.836;12.060;2023-08-30T03:27:15;16.90;93.40
19110;DHT22;9687;50.836;12.060;2023-08-30T03:29:44;17.00;93.50
19110;DHT22;9687;50.836;12.060;2023-08-30T03:32:16;16.90;93.40
19110;DHT22;9687;50.836;12.060;2023-08-30T03:34:44;17.00;93.50
19110;DHT22;9687;50.836;12.060;2023-08-30T03:37:11;16.90;93.40
19110;DHT22;9687;50.836;12.060;2023-08-30T03:39:39;16.90;93.30
19110;DHT22;9687;50.836;12.060;2023-08-30T03:42:07;16.90;93.20
19110;DHT22;9687;50.836;12.060;2023-08-30T03:44:34;16.90;93.20
19110;DHT22;9687;50.836;12.060;2023-08-30T03:47:03;16.90;93.20
19110;DHT22;9687;50.836;12.060;2023-08-30T03:49:30;16.80;93.10
19110;DHT22;9687;50.836;12.060;2023-08-30T03:51:58;16.80;93.20
19110;DHT22;9687;50.836;12.060;2023-08-30T03:54:25;16.70;93.30
19110;DHT22;9687;50.836;12.060;2023-08-30T03:56:52;16.70;93.30
19110;DHT22;9687;50.836;12.060;2023-08-30T03:59:20;16.70;93.30
19110;DHT22;9687;50.836;12.060;2023-08-30T04:01:48;16.70;93.30
19110;DHT22;9687;50.836;12.060;2023-08-30T04:04:17;16.70;93.30
19110;DHT22;9687;50.836;12.060;2023-08-30T04:06:44;16.80;93.30
19110;DHT22;9687;50.836;12.060;2023-08-30T04:09:12;16.80;93.30
19110;DHT22;9687;50.836;12.060;2023-08-30T04:11:39;16.80;93.30
19110;DHT22;9687;50.836;12.060;2023-08-30T04:14:08;16.80;93.20
19110;DHT22;9687;50.836;12.060;2023-08-30T04:16:36;16.80;93.20
19110;DHT22;9687;50.836;12.060;2023-08-30T04:19:04;16.80;93.10
19110;DHT22;9687;50.836;12.060;2023-08-30T04:21:33;16.80;93.10
19110;DHT22;9687;50.836;12.060;2023-08-30T04:24:18;16.70;93.10
19110;DHT22;9687;50.836;12.060;2023-08-30T04:26:46;16.70;93.10
19110;DHT22;9687;50.836;12.060;2023-08-30T04:29:17;16.70;93.10
19110;DHT22;9687;50.836;12.060;2023-08-30T04:31:44;16.70;93.10
19110;DHT22;9687;50.836;12.060;2023-08-30T04:34:11;16.70;93.00
19110;DHT22;9687;50.836;12.060;2023-08-30T04:36:40;16.70;93.00
19110;DHT22;9687;50.836;12.060;2023-08-30T04:39:08;16.70;93.00
19110;DHT22;9687;50.836;12.060;2023-08-30T04:41:36;16.70;93.00
19110;DHT22;9687;50.836;12.060;2023-08-30T04:44:04;16.70;93.00
19110;DHT22;9687;50.836;12.060;2023-08-30T04:46:32;16.70;93.00
19110;DHT22;9687;50.836;12.060;2023-08-30T04:48:59;16.70;92.90
19110;DHT22;9687;50.836;12.060;2023-08-30T04:51:27;16.70;92.90
19110;DHT22;9687;50.836;12.060;2023-08-30T04:53:55;16.70;92.90
19110;DHT22;9687;50.836;12.060;2023-08-30T04:56:23;16.70;92.90
19110;DHT22;9687;50.836;12.060;2023-08-30T04:58:50;16.60;92.80
19110;DHT22;9687;50.836;12.060;2023-08-30T05:01:20;16.60;92.80
19110;DHT22;9687;50.836;12.060;2023-08-30T05:03:48;16.60;92.90
19110;DHT22;9687;50.836;12.060;2023-08-30T05:06:15;16.60;92.80
19110;DHT22;9687;50.836;12.060;2023-08-30T05:08:43;16.50;92.80
19110;DHT22;9687;50.836;12.060;2023-08-30T05:11:11;16.50;92.80
19110;DHT22;9687;50.836;12.060;2023-08-30T05:13:39;16.50;92.80
19110;DHT22;9687;50.836;12.060;2023-08-30T05:16:06;16.50;92.70
19110;DHT22;9687;50.836;12.060;2023-08-30T05:18:33;16.40;92.70
19110;DHT22;9687;50.836;12.060;2023-08-30T05:21:01;16.40;92.70
19110;DHT22;9687;50.836;12.060;2023-08-30T05:23:30;16.30;92.70
19110;DHT22;9687;50.836;12.060;2023-08-30T05:26:00;16.20;92.70
19110;DHT22;9687;50.836;12.060;2023-08-30T05:28:30;16.10;92.70
19110;DHT22;9687;50.836;12.060;2023-08-30T05:30:59;16.00;92.80
19110;DHT22;9687;50.836;12.060;2023-08-30T05:33:38;15.80;92.90
19110;DHT22;9687;50.836;12.060;2023-08-30T05:36:05;15.80;93.10
19110;DHT22;9687;50.836;12.060;2023-08-30T05:38:35;15.70;93.20
19110;DHT22;9687;50.836;12.060;2023-08-30T05:41:04;15.60;93.40
19110;DHT22;9687;50.836;12.060;2023-08-30T05:43:37;15.60;93.50
19110;DHT22;9687;50.836;12.060;2023-08-30T05:46:05;15.60;93.60
19110;DHT22;9687;50.836;12.060;2023-08-30T05:48:38;15.60;93.80
19110;DHT22;9687;50.836;12.060;2023-08-30T05:51:06;15.60;93.90
19110;DHT22;9687;50.836;12.060;2023-08-30T05:53:35;15.60;94.00
19110;DHT22;9687;50.836;12.060;2023-08-30T05:56:16;15.60;94.00
19110;DHT22;9687;50.836;12.060;2023-08-30T05:58:45;15.60;94.10
19110;DHT22;9687;50.836;12.060;2023-08-30T06:01:13;15.60;94.10
19110;DHT22;9687;50.836;12.060;2023-08-30T06:03:44;15.60;94.20
19110;DHT22;9687;50.836;12.060;2023-08-30T06:06:12;15.60;94.30
19110;DHT22;9687;50.836;12.060;2023-08-30T06:08:40;15.70;94.40
19110;DHT22;9687;50.836;12.060;2023-08-30T06:11:07;15.70;94.40
19110;DHT22;9687;50.836;12.060;2023-08-30T06:13:35;15.80;94.50
19110;DHT22;9687;50.836;12.060;2023-08-30T06:16:05;15.80;94.50
19110;DHT22;9687;50.836;12.060;2023-08-30T06:18:33;15.80;94.50
19110;DHT22;9687;50.836;12.060;2023-08-30T06:21:01;15.80;94.60
19110;DHT22;9687;50.836;12.060;2023-08-30T06:23:32;15.90;94.70
19110;DHT22;9687;50.836;12.060;2023-08-30T06:26:00;16.00;94.80
19110;DHT22;9687;50.836;12.060;2023-08-30T06:28:29;16.00;94.80
19110;DHT22;9687;50.836;12.060;2023-08-30T06:30:59;16.00;94.80
19110;DHT22;9687;50.836;12.060;2023-08-30T06:33:30;16.00;94.90
19110;DHT22;9687;50.836;12.060;2023-08-30T06:35:58;16.10;95.00
19110;DHT22;9687;50.836;12.060;2023-08-30T06:38:27;16.20;95.10
19110;DHT22;9687;50.836;12.060;2023-08-30T06:40:57;16.20;95.10
19110;DHT22;9687;50.836;12.060;2023-08-30T06:43:25;16.30;95.10
19110;DHT22;9687;50.836;12.060;2023-08-30T06:45:53;16.40;95.10
19110;DHT22;9687;50.836;12.060;2023-08-30T06:48:23;16.40;95.10
19110;DHT22;9687;50.836;12.060;2023-08-30T06:51:05;16.50;95.10
19110;DHT22;9687;50.836;12.060;2023-08-30T06:53:54;16.60;95.20
19110;DHT22;9687;50.836;12.060;2023-08-30T06:56:57;16.60;95.20
19110;DHT22;9687;50.836;12.060;2023-08-30T06:59:40;16.70;95.30
19110;DHT22;9687;50.836;12.060;2023-08-30T07:02:11;16.70;95.30
19110;DHT22;9687;50.836;12.060;2023-08-30T07:04:43;16.80;95.40
19110;DHT22;9687;50.836;12.060;2023-08-30T07:07:20;16.90;95.50
19110;DHT22;9687;50.836;12.060;2023-08-30T07:10:00;17.10;95.40
19110;DHT22;9687;50.836;12.060;2023-08-30T07:12:31;17.10;95.40
19110;DHT22;9687;50.836;12.060;2023-08-30T07:14:58;17.20;95.60
19110;DHT22;9687;50.836;12.060;2023-08-30T07:17:26;17.30;95.70
19110;DHT22;9687;50.836;12.060;2023-08-30T07:19:55;17.50;95.90
19110;DHT22;9687;50.836;12.060;2023-08-30T07:22:24;17.60;96.10
19110;DHT22;9687;50.836;12.060;2023-08-30T07:24:52;17.80;96.50
19110;DHT22;9687;50.836;12.060;2023-08-30T07:27:20;18.10;97.50
19110;DHT22;9687;50.836;12.060;2023-08-30T07:29:48;18.40;99.00
19110;DHT22;9687;50.836;12.060;2023-08-30T07:32:22;18.70;99.00
19110;DHT22;9687;50.836;12.060;2023-08-30T07:35:08;19.10;99.30
19110;DHT22;9687;50.836;12.060;2023-08-30T07:37:56;19.50;98.90
19110;DHT22;9687;50.836;12.060;2023-08-30T07:40:25;19.90;98.60
19110;DHT22;9687;50.836;12.060;2023-08-30T07:42:56;20.30;98.50
19110;DHT22;9687;50.836;12.060;2023-08-30T07:45:23;20.80;98.70
19110;DHT22;9687;50.836;12.060;2023-08-30T07:47:51;21.30;98.60
19110;DHT22;9687;50.836;12.060;2023-08-30T07:50:24;21.90;98.30
19110;DHT22;9687;50.836;12.060;2023-08-30T07:52:58;22.50;98.00
19110;DHT22;9687;50.836;12.060;2023-08-30T07:55:27;23.20;97.60
19110;DHT22;9687;50.836;12.060;2023-08-30T07:58:00;23.80;96.10
19110;DHT22;9687;50.836;12.060;2023-08-30T08:00:29;24.40;95.10
19110;DHT22;9687;50.836;12.060;2023-08-30T08:02:58;24.90;94.00
19110;DHT22;9687;50.836;12.060;2023-08-30T08:05:31;25.40;92.70
19110;DHT22;9687;50.836;12.060;2023-08-30T08:08:01;25.90;91.50
19110;DHT22;9687;50.836;12.060;2023-08-30T08:10:31;26.30;90.10
19110;DHT22;9687;50.836;12.060;2023-08-30T08:12:58;26.70;88.10
19110;DHT22;9687;50.836;12.060;2023-08-30T08:15:28;27.10;86.50
19110;DHT22;9687;50.836;12.060;2023-08-30T08:18:01;27.50;84.60
19110;DHT22;9687;50.836;12.060;2023-08-30T08:20:31;28.00;82.60
19110;DHT22;9687;50.836;12.060;2023-08-30T08:23:05;28.40;79.10
19110;DHT22;9687;50.836;12.060;2023-08-30T08:25:42;28.50;73.90
19110;DHT22;9687;50.836;12.060;2023-08-30T08:28:10;28.30;69.50
19110;DHT22;9687;50.836;12.060;2023-08-30T08:30:43;27.90;66.90
19110;DHT22;9687;50.836;12.060;2023-08-30T08:33:15;27.40;66.00
19110;DHT22;9687;50.836;12.060;2023-08-30T08:35:51;26.90;65.50
19110;DHT22;9687;50.836;12.060;2023-08-30T08:38:24;26.30;65.40
19110;DHT22;9687;50.836;12.060;2023-08-30T08:40:53;25.70;65.50
19110;DHT22;9687;50.836;12.060;2023-08-30T08:43:30;25.30;66.00
19110;DHT22;9687;50.836;12.060;2023-08-30T08:45:59;24.70;66.50
19110;DHT22;9687;50.836;12.060;2023-08-30T08:48:31;24.30;67.10
19110;DHT22;9687;50.836;12.060;2023-08-30T08:51:21;24.00;69.20
19110;DHT22;9687;50.836;12.060;2023-08-30T08:53:51;24.10;71.10
19110;DHT22;9687;50.836;12.060;2023-08-30T08:56:19;24.50;70.80
19110;DHT22;9687;50.836;12.060;2023-08-30T08:58:51;25.00;70.20
19110;DHT22;9687;50.836;12.060;2023-08-30T09:01:20;25.40;69.20
19110;DHT22;9687;50.836;12.060;2023-08-30T09:03:47;25.90;68.30
19110;DHT22;9687;50.836;12.060;2023-08-30T09:06:15;26.60;67.70
19110;DHT22;9687;50.836;12.060;2023-08-30T09:08:45;27.20;66.20
19110;DHT22;9687;50.836;12.060;2023-08-30T09:11:13;27.80;64.70
19110;DHT22;9687;50.836;12.060;2023-08-30T09:13:43;28.30;63.50
19110;DHT22;9687;50.836;12.060;2023-08-30T09:16:19;28.90;61.10
19110;DHT22;9687;50.836;12.060;2023-08-30T09:18:59;29.30;60.20
19110;DHT22;9687;50.836;12.060;2023-08-30T09:21:26;29.60;59.60
19110;DHT22;9687;50.836;12.060;2023-08-30T09:23:57;29.90;59.00
19110;DHT22;9687;50.836;12.060;2023-08-30T09:26:32;30.00;58.40
19110;DHT22;9687;50.836;12.060;2023-08-30T09:29:02;29.80;56.80
19110;DHT22;9687;50.836;12.060;2023-08-30T09:31:34;29.30;56.30
19110;DHT22;9687;50.836;12.060;2023-08-30T09:34:04;28.70;56.40
19110;DHT22;9687;50.836;12.060;2023-08-30T09:36:34;28.30;57.90
19110;DHT22;9687;50.836;12.060;2023-08-30T09:39:05;28.10;59.00
19110;DHT22;9687;50.836;12.060;2023-08-30T09:41:34;28.20;59.30
19110;DHT22;9687;50.836;12.060;2023-08-30T09:44:06;28.30;59.10
19110;DHT22;9687;50.836;12.060;2023-08-30T09:46:39;28.40;58.80
19110;DHT22;9687;50.836;12.060;2023-08-30T09:49:07;28.40;58.50
19110;DHT22;9687;50.836;12.060;2023-08-30T09:51:38;28.40;58.30
19110;DHT22;9687;50.836;12.060;2023-08-30T09:54:25;28.30;58.00
19110;DHT22;9687;50.836;12.060;2023-08-30T09:57:03;28.20;58.40
19110;DHT22;9687;50.836;12.060;2023-08-30T09:59:33;28.30;58.40
19110;DHT22;9687;50.836;12.060;2023-08-30T10:02:02;28.40;58.20
19110;DHT22;9687;50.836;12.060;2023-08-30T10:04:32;28.50;58.00
19110;DHT22;9687;50.836;12.060;2023-08-30T10:07:00;28.50;57.80
19110;DHT22;9687;50.836;12.060;2023-08-30T10:09:31;28.50;58.00
19110;DHT22;9687;50.836;12.060;2023-08-30T10:12:16;28.70;57.90
19110;DHT22;9687;50.836;12.060;2023-08-30T10:14:46;28.70;57.30
19110;DHT22;9687;50.836;12.060;2023-08-30T10:17:14;28.50;57.20
19110;DHT22;9687;50.836;12.060;2023-08-30T10:19:46;28.40;57.30
19110;DHT22;9687;50.836;12.060;2023-08-30T10:22:16;28.40;57.20
19110;DHT22;9687;50.836;12.060;2023-08-30T10:24:44;28.50;57.20
19110;DHT22;9687;50.836;12.060;2023-08-30T10:27:12;28.60;57.00
19110;DHT22;9687;50.836;12.060;2023-08-30T10:29:42;28.80;56.60
19110;DHT22;9687;50.836;12.060;2023-08-30T10:32:18;28.90;56.10
19110;DHT22;9687;50.836;12.060;2023-08-30T10:34:47;28.90;55.40
19110;DHT22;9687;50.836;12.060;2023-08-30T10:37:21;28.80;55.00
19110;DHT22;9687;50.836;12.060;2023-08-30T10:39:51;28.70;55.10
19110;DHT22;9687;50.836;12.060;2023-08-30T10:42:21;28.60;55.20
19110;DHT22;9687;50.836;12.060;2023-08-30T10:45:22;28.30;54.50
19110;DHT22;9687;50.836;12.060;2023-08-30T10:47:53;28.20;55.30
19110;DHT22;9687;50.836;12.060;2023-08-30T10:50:27;28.20;55.60
19110;DHT22;9687;50.836;12.060;2023-08-30T10:52:55;28.30;55.50
19110;DHT22;9687;50.836;12.060;2023-08-30T10:55:27;28.50;55.20
19110;DHT22;9687;50.836;12.060;2023-08-30T10:58:00;28.70;54.90
19110;DHT22;9687;50.836;12.060;2023-08-30T11:00:32;28.90;54.60
19110;DHT22;9687;50.836;12.060;2023-08-30T11:03:01;29.10;54.10
19110;DHT22;9687;50.836;12.060;2023-08-30T11:05:34;29.30;53.70
19110;DHT22;9687;50.836;12.060;2023-08-30T11:08:04;29.30;52.90
19110;DHT22;9687;50.836;12.060;2023-08-30T11:10:49;29.40;53.00
19110;DHT22;9687;50.836;12.060;2023-08-30T11:13:39;29.30;52.70
19110;DHT22;9687;50.836;12.060;2023-08-30T11:16:09;29.40;52.70
19110;DHT22;9687;50.836;12.060;2023-08-30T11:18:39;29.60;52.90
19110;DHT22;9687;50.836;12.060;2023-08-30T11:21:08;29.70;53.30
19110;DHT22;9687;50.836;12.060;2023-08-30T11:23:40;29.70;52.20
19110;DHT22;9687;50.836;12.060;2023-08-30T11:26:07;29.80;51.50
19110;DHT22;9687;50.836;12.060;2023-08-30T11:28:37;29.60;51.20
19110;DHT22;9687;50.836;12.060;2023-08-30T11:31:11;29.40;51.40
19110;DHT22;9687;50.836;12.060;2023-08-30T11:33:50;29.20;51.20
19110;DHT22;9687;50.836;12.060;2023-08-30T11:36:23;28.80;51.80
19110;DHT22;9687;50.836;12.060;2023-08-30T11:38:53;28.50;51.50
19110;DHT22;9687;50.836;12.060;2023-08-30T11:41:21;28.20;51.90
19110;DHT22;9687;50.836;12.060;2023-08-30T11:43:52;28.00;52.30
19110;DHT22;9687;50.836;12.060;2023-08-30T11:46:22;27.70;52.40
19110;DHT22;9687;50.836;12.060;2023-08-30T11:48:57;27.40;52.60
19110;DHT22;9687;50.836;12.060;2023-08-30T11:51:25;27.10;52.60
19110;DHT22;9687;50.836;12.060;2023-08-30T11:53:53;26.80;52.90
19110;DHT22;9687;50.836;12.060;2023-08-30T11:56:22;26.50;53.20
19110;DHT22;9687;50.836;12.060;2023-08-30T11:58:53;26.30;53.40
19110;DHT22;9687;50.836;12.060;2023-08-30T12:01:24;26.10;53.40
19110;DHT22;9687;50.836;12.060;2023-08-30T12:03:53;25.90;54.40
19110;DHT22;9687;50.836;12.060;2023-08-30T12:06:22;25.70;53.90
19110;DHT22;9687;50.836;12.060;2023-08-30T12:08:57;25.50;54.00
19110;DHT22;9687;50.836;12.060;2023-08-30T12:11:31;25.30;54.10
19110;DHT22;9687;50.836;12.060;2023-08-30T12:14:01;25.10;54.20
19110;DHT22;9687;50.836;12.060;2023-08-30T12:16:31;24.90;54.80
19110;DHT22;9687;50.836;12.060;2023-08-30T12:19:07;24.80;55.10
19110;DHT22;9687;50.836;12.060;2023-08-30T12:21:39;24.70;55.20
19110;DHT22;9687;50.836;12.060;2023-08-30T12:24:09;24.60;55.40
19110;DHT22;9687;50.836;12.060;2023-08-30T12:26:41;24.40;55.50
19110;DHT22;9687;50.836;12.060;2023-08-30T12:29:12;24.30;55.70
19110;DHT22;9687;50.836;12.060;2023-08-30T12:31:41;24.20;55.80
19110;DHT22;9687;50.836;12.060;2023-08-30T12:34:09;24.20;56.10
19110;DHT22;9687;50.836;12.060;2023-08-30T12:36:36;24.10;56.30
19110;DHT22;9687;50.836;12.060;2023-08-30T12:39:04;24.00;56.40
19110;DHT22;9687;50.836;12.060;2023-08-30T12:41:33;24.00;56.50
19110;DHT22;9687;50.836;12.060;2023-08-30T12:44:02;23.90;56.60
19110;DHT22;9687;50.836;12.060;2023-08-30T12:46:32;23.80;56.60
19110;DHT22;9687;50.836;12.060;2023-08-30T12:49:01;23.80;56.80
19110;DHT22;9687;50.836;12.060;2023-08-30T12:51:30;23.70;56.90
19110;DHT22;9687;50.836;12.060;2023-08-30T12:53:58;23.70;57.10
19110;DHT22;9687;50.836;12.060;2023-08-30T12:56:28;23.60;57.30
19110;DHT22;9687;50.836;12.060;2023-08-30T12:58:55;23.50;57.50
19110;DHT22;9687;50.836;12.060;2023-08-30T13:01:23;23.50;57.70
19110;DHT22;9687;50.836;12.060;2023-08-30T13:03:52;23.50;57.90
19110;DHT22;9687;50.836;12.060;2023-08-30T13:06:22;23.40;58.00
19110;DHT22;9687;50.836;12.060;2023-08-30T13:08:50;23.40;58.20
19110;DHT22;9687;50.836;12.060;2023-08-30T13:11:19;23.40;58.20
19110;DHT22;9687;50.836;12.060;2023-08-30T13:13:47;23.30;58.30
19110;DHT22;9687;50.836;12.060;2023-08-30T13:16:17;23.40;58.50
19110;DHT22;9687;50.836;12.060;2023-08-30T13:18:46;23.40;58.70
19110;DHT22;9687;50.836;12.060;2023-08-30T13:21:16;23.40;58.70
19110;DHT22;9687;50.836;12.060;2023-08-30T13:23:46;23.40;58.60
19110;DHT22;9687;50.836;12.060;2023-08-30T13:26:15;23.40;58.80
19110;DHT22;9687;50.836;12.060;2023-08-30T13:28:45;23.50;58.90
19110;DHT22;9687;50.836;12.060;2023-08-30T13:31:13;23.40;58.70
19110;DHT22;9687;50.836;12.060;2023-08-30T13:33:41;23.50;58.80
19110;DHT22;9687;50.836;12.060;2023-08-30T13:36:10;23.50;58.70
19110;DHT22;9687;50.836;12.060;2023-08-30T13:38:39;23.50;58.70
19110;DHT22;9687;50.836;12.060;2023-08-30T13:41:11;23.50;58.80
19110;DHT22;9687;50.836;12.060;2023-08-30T13:43:40;23.50;58.90
19110;DHT22;9687;50.836;12.060;2023-08-30T13:46:11;23.40;58.80
19110;DHT22;9687;50.836;12.060;2023-08-30T13:48:39;23.40;58.80
19110;DHT22;9687;50.836;12.060;2023-08-30T13:51:07;23.50;58.90
19110;DHT22;9687;50.836;12.060;2023-08-30T13:53:37;23.40;58.90
19110;DHT22;9687;50.836;12.060;2023-08-30T13:56:07;23.40;59.00
19110;DHT22;9687;50.836;12.060;2023-08-30T13:58:36;23.40;59.00
19110;DHT22;9687;50.836;12.060;2023-08-30T14:01:04;23.40;59.00
19110;DHT22;9687;50.836;12.060;2023-08-30T14:03:33;23.30;59.00
19110;DHT22;9687;50.836;12.060;2023-08-30T14:06:02;23.30;58.90
19110;DHT22;9687;50.836;12.060;2023-08-30T14:08:31;23.30;58.90
19110;DHT22;9687;50.836;12.060;2023-08-30T14:11:00;23.30;58.90
19110;DHT22;9687;50.836;12.060;2023-08-30T14:13:29;23.20;59.00
19110;DHT22;9687;50.836;12.060;2023-08-30T14:16:00;23.20;59.00
19110;DHT22;9687;50.836;12.060;2023-08-30T14:18:30;23.20;59.20
19110;DHT22;9687;50.836;12.060;2023-08-30T14:20:59;23.20;59.30
19110;DHT22;9687;50.836;12.060;2023-08-30T14:23:27;23.20;59.30
19110;DHT22;9687;50.836;12.060;2023-08-30T14:25:57;23.20;59.60
19110;DHT22;9687;50.836;12.060;2023-08-30T14:28:24;23.20;59.70
19110;DHT22;9687;50.836;12.060;2023-08-30T14:30:52;23.20;59.80
19110;DHT22;9687;50.836;12.060;2023-08-30T14:33:21;23.20;60.00
19110;DHT22;9687;50.836;12.060;2023-08-30T14:35:49;23.20;60.00
19110;DHT22;9687;50.836;12.060;2023-08-30T14:38:17;23.20;60.00
19110;DHT22;9687;50.836;12.060;2023-08-30T14:40:53;23.20;60.00
19110;DHT22;9687;50.836;12.060;2023-08-30T14:43:21;23.20;60.00
19110;DHT22;9687;50.836;12.060;2023-08-30T14:45:49;23.10;60.00
19110;DHT22;9687;50.836;12.060;2023-08-30T14:48:17;23.10;60.10
19110;DHT22;9687;50.836;12.060;2023-08-30T14:50:51;23.10;60.30
19110;DHT22;9687;50.836;12.060;2023-08-30T14:53:33;23.10;60.40
19110;DHT22;9687;50.836;12.060;2023-08-30T14:56:02;23.10;60.40
19110;DHT22;9687;50.836;12.060;2023-08-30T14:58:33;23.00;60.30
19110;DHT22;9687;50.836;12.060;2023-08-30T15:01:01;23.00;60.30
19110;DHT22;9687;50.836;12.060;2023-08-30T15:03:30;23.00;60.30
19110;DHT22;9687;50.836;12.060;2023-08-30T15:06:00;23.00;60.30
19110;DHT22;9687;50.836;12.060;2023-08-30T15:08:28;22.90;60.20
19110;DHT22;9687;50.836;12.060;2023-08-30T15:10:58;23.00;60.30
19110;DHT22;9687;50.836;12.060;2023-08-30T15:13:26;23.00;60.30
19110;DHT22;9687;50.836;12.060;2023-08-30T15:15:54;23.00;60.50
19110;DHT22;9687;50.836;12.060;2023-08-30T15:18:22;23.00;60.60
19110;DHT22;9687;50.836;12.060;2023-08-30T15:21:02;22.90;60.40
19110;DHT22;9687;50.836;12.060;2023-08-30T15:23:29;23.00;60.80
19110;DHT22;9687;50.836;12.060;2023-08-30T15:25:56;22.90;60.90
19110;DHT22;9687;50.836;12.060;2023-08-30T15:28:24;23.00;61.10
19110;DHT22;9687;50.836;12.060;2023-08-30T15:30:52;22.90;61.00
19110;DHT22;9687;50.836;12.060;2023-08-30T15:33:20;22.90;61.20
19110;DHT22;9687;50.836;12.060;2023-08-30T15:35:57;22.90;61.30
19110;DHT22;9687;50.836;12.060;2023-08-30T15:38:27;22.90;61.40
19110;DHT22;9687;50.836;12.060;2023-08-30T15:40:55;22.80;61.10
19110;DHT22;9687;50.836;12.060;2023-08-30T15:43:24;22.80;61.00
19110;DHT22;9687;50.836;12.060;2023-08-30T15:45:52;22.80;60.90
19110;DHT22;9687;50.836;12.060;2023-08-30T15:48:19;22.70;61.10